Time;durP1;ratioP1;P1;durP2;ratioP2;P2;SDS_P1;SDS_P2;PMS_P1;PMS_P2;Temp;Humidity;BMP_temperature;BMP_pressure;BME280_temperature;BME280_humidity;BME280_pressure;Samples;Min_cycle;Max_cycle;Signal;HPM_P1;HPM_P2
2022/06/07 00:00:21;;;;;;;7.03;4.28;;;;;;;16.97;100.00;94493.53;5057599;28;20567;-60
2022/06/07 00:02:46;;;;;;;6.60;4.03;;;;;;;16.75;100.00;94483.09;5092148;28;20208;-60
2022/06/07 00:05:12;;;;;;;7.20;4.47;;;;;;;16.81;100.00;94488.53;5092169;28;20168;-65
2022/06/07 00:07:37;;;;;;;9.23;4.20;;;;;;;16.78;100.00;94490.47;5092362;28;20222;-67
2022/06/07 00:10:04;;;;;;;7.85;4.47;;;;;;;16.85;100.00;94485.41;5074101;28;20257;-62
2022/06/07 00:12:29;;;;;;;7.75;3.92;;;;;;;16.88;100.00;94487.66;5073941;28;20553;-63
2022/06/07 00:14:55;;;;;;;8.68;4.78;;;;;;;16.71;100.00;94476.69;5092388;28;20180;-64
2022/06/07 00:17:21;;;;;;;7.22;4.45;;;;;;;16.92;100.00;94481.22;5073814;28;20658;-64
2022/06/07 00:19:47;;;;;;;7.45;3.83;;;;;;;17.01;100.00;94484.50;5091966;28;20180;-64
2022/06/07 00:22:13;;;;;;;10.63;4.60;;;;;;;16.97;100.00;94486.59;5091963;28;20378;-62
2022/06/07 00:24:38;;;;;;;6.97;3.90;;;;;;;16.84;100.00;94490.72;5073771;28;20627;-66
2022/06/07 00:27:05;;;;;;;10.50;3.95;;;;;;;16.58;100.00;94491.84;5092135;28;20714;-65
2022/06/07 00:29:31;;;;;;;7.43;4.30;;;;;;;16.83;100.00;94496.84;5073920;28;20268;-64
2022/06/07 00:31:59;;;;;;;7.82;4.10;;;;;;;16.93;100.00;94493.06;5073648;28;20260;-62
2022/06/07 00:34:25;;;;;;;7.28;4.35;;;;;;;17.07;100.00;94504.38;5073727;28;20247;-60
2022/06/07 00:36:50;;;;;;;10.15;4.10;;;;;;;16.80;100.00;94487.72;5091761;28;20180;-61
2022/06/07 00:39:16;;;;;;;5.72;4.30;;;;;;;16.83;100.00;94486.59;5074266;28;20208;-67
2022/06/07 00:41:41;;;;;;;6.55;4.07;;;;;;;17.07;100.00;94500.00;5091429;28;20180;-63
2022/06/07 00:44:25;;;;;;;6.13;4.47;;;;;;;16.97;100.00;94491.75;5092172;28;20685;-66
2022/06/07 00:47:08;;;;;;;5.35;4.30;;;;;;;16.85;100.00;94494.91;5094689;28;20199;-67
2022/06/07 00:49:40;;;;;;;6.25;3.47;;;;;;;16.65;100.00;94490.22;5095910;28;20208;-64
2022/06/07 00:52:05;;;;;;;8.13;4.43;;;;;;;16.48;100.00;94488.66;5077267;28;20214;-60
2022/06/07 00:54:37;;;;;;;7.45;3.83;;;;;;;16.45;100.00;94486.47;5103152;22;20314;-65
2022/06/07 00:57:03;;;;;;;6.07;4.35;;;;;;;16.27;100.00;94485.13;5077511;28;20188;-59
2022/06/07 00:59:30;;;;;;;7.30;4.20;;;;;;;16.18;100.00;94486.13;5095996;28;20253;-64
2022/06/07 01:01:55;;;;;;;8.02;4.32;;;;;;;16.16;100.00;94488.84;5095380;28;20217;-65
2022/06/07 01:04:23;;;;;;;5.90;4.43;;;;;;;16.26;100.00;94489.44;5096037;28;20204;-62
2022/06/07 01:12:18;;;;;;;8.68;5.07;;;;;;;16.33;100.00;94490.38;5095140;28;20265;-65
2022/06/07 01:14:43;;;;;;;6.60;5.70;;;;;;;16.36;100.00;94495.16;5095173;28;20204;-63
2022/06/07 01:17:09;;;;;;;11.32;5.80;;;;;;;16.43;100.00;94490.16;5076885;28;20660;-62
2022/06/07 01:19:34;;;;;;;9.77;5.70;;;;;;;16.38;100.00;94487.31;5095061;28;20219;-61
2022/06/07 01:22:00;;;;;;;5.70;5.13;;;;;;;16.50;100.00;94486.00;5095214;28;20650;-62
2022/06/07 01:24:25;;;;;;;6.43;5.07;;;;;;;16.58;100.00;94481.59;5077027;28;20211;-63
2022/06/07 01:26:53;;;;;;;8.20;5.90;;;;;;;16.72;100.00;94492.91;5095042;28;20278;-62
2022/06/07 01:29:19;;;;;;;6.57;5.88;;;;;;;16.71;100.00;94484.41;5077558;28;20192;-59
2022/06/07 01:31:44;;;;;;;9.02;6.97;;;;;;;16.72;100.00;94496.25;5094943;28;20211;-65
2022/06/07 01:34:10;;;;;;;8.13;6.00;;;;;;;16.72;100.00;94490.34;5095354;28;20228;-62
2022/06/07 01:36:36;;;;;;;12.82;7.65;;;;;;;16.79;100.00;94492.03;5076732;28;20180;-61
2022/06/07 01:41:54;;;;;;;8.55;7.65;;;;;;;16.60;100.00;94495.03;5095128;28;20171;-61
2022/06/07 01:44:36;;;;;;;8.65;7.60;;;;;;;16.63;100.00;94492.16;5095197;28;20656;-62
2022/06/07 01:47:03;;;;;;;7.70;6.88;;;;;;;16.54;100.00;94482.91;5094741;28;20172;-62
2022/06/07 01:49:28;;;;;;;11.13;6.90;;;;;;;16.60;100.00;94482.22;5095036;28;20216;-59
2022/06/07 01:51:55;;;;;;;10.27;7.03;;;;;;;16.66;100.00;94486.66;5094231;28;20207;-60
2022/06/07 01:54:21;;;;;;;10.45;8.20;;;;;;;16.59;100.00;94488.31;5076518;28;20234;-63
2022/06/07 01:56:47;;;;;;;10.85;8.75;;;;;;;16.57;100.00;94477.44;5075976;28;20198;-64
2022/06/07 01:59:13;;;;;;;9.57;8.43;;;;;;;16.52;100.00;94484.06;5075958;28;20700;-62
2022/06/07 02:01:39;;;;;;;14.80;8.63;;;;;;;16.72;100.00;94483.41;5094319;28;20173;-65
2022/06/07 02:04:05;;;;;;;9.80;8.40;;;;;;;17.03;100.00;94485.13;5094591;28;20717;-62
2022/06/07 02:06:31;;;;;;;9.40;6.90;;;;;;;16.92;100.00;94482.97;5075985;28;20207;-62
2022/06/07 02:08:57;;;;;;;8.93;8.02;;;;;;;16.83;100.00;94476.31;5076317;28;20262;-64
2022/06/07 02:11:25;;;;;;;14.85;7.75;;;;;;;17.07;100.00;94479.47;5075917;28;20580;-62
2022/06/07 02:13:58;;;;;;;9.60;8.05;;;;;;;17.24;100.00;94480.13;5094405;28;20215;-62
2022/06/07 02:16:24;;;;;;;11.75;7.88;;;;;;;17.22;100.00;94479.50;5094163;28;20537;-64
2022/06/07 02:18:50;;;;;;;9.30;7.68;;;;;;;17.36;100.00;94487.25;5094704;28;20579;-64
2022/06/07 02:21:17;;;;;;;9.38;7.45;;;;;;;17.39;100.00;94486.09;5093980;28;20172;-63
2022/06/07 02:23:43;;;;;;;17.27;8.52;;;;;;;17.31;100.00;94483.63;5093801;28;20200;-64
2022/06/07 02:26:21;;;;;;;9.63;7.18;;;;;;;17.10;100.00;94483.47;5093922;28;20238;-62
2022/06/07 02:29:33;;;;;;;10.73;8.15;;;;;;;17.24;100.00;94486.06;5093739;28;20249;-60
2022/06/07 02:32:03;;;;;;;10.32;6.68;;;;;;;17.30;100.00;94489.72;5056638;28;20252;-64
2022/06/07 02:34:29;;;;;;;12.15;6.47;;;;;;;17.22;100.00;94493.16;5094070;28;20665;-64
2022/06/07 02:37:01;;;;;;;7.13;5.95;;;;;;;17.24;100.00;94488.63;5093640;28;20198;-62
2022/06/07 02:39:29;;;;;;;9.82;5.82;;;;;;;17.02;100.00;94486.09;5094012;28;20299;-62
2022/06/07 02:41:58;;;;;;;9.30;5.47;;;;;;;16.84;100.00;94488.16;5075418;28;20215;-59
2022/06/07 02:44:24;;;;;;;6.80;4.47;;;;;;;16.73;100.00;94487.59;5093906;28;20261;-61
2022/06/07 02:46:50;;;;;;;10.13;4.85;;;;;;;16.58;100.00;94491.84;5093246;28;20595;-65
2022/06/07 02:49:16;;;;;;;9.25;4.75;;;;;;;16.56;100.00;94493.00;5075018;28;20258;-65
2022/06/07 02:51:42;;;;;;;7.72;5.07;;;;;;;16.50;100.00;94497.03;5075053;28;20299;-60
2022/06/07 02:54:07;;;;;;;8.80;4.80;;;;;;;16.58;100.00;94498.78;5075229;28;20286;-63
2022/06/07 02:56:33;;;;;;;7.88;5.13;;;;;;;16.57;100.00;94505.66;5076174;28;20570;-62
2022/06/07 02:58:58;;;;;;;7.53;4.90;;;;;;;16.62;100.00;94503.38;5093640;28;20228;-64
2022/06/07 03:01:24;;;;;;;6.95;5.20;;;;;;;16.85;100.00;94502.63;5093467;28;20176;-66
2022/06/07 03:03:50;;;;;;;7.82;4.82;;;;;;;16.92;100.00;94506.88;5093640;28;20204;-60
2022/06/07 03:06:15;;;;;;;5.93;4.72;;;;;;;16.75;100.00;94503.63;5093310;28;20558;-62
2022/06/07 03:08:41;;;;;;;5.30;4.68;;;;;;;16.81;100.00;94511.63;5092855;28;20300;-65
2022/06/07 03:11:07;;;;;;;5.38;4.82;;;;;;;16.77;100.00;94511.16;5092588;28;20203;-63
2022/06/07 03:13:32;;;;;;;10.95;4.85;;;;;;;16.60;100.00;94513.00;5092861;28;20200;-59
2022/06/07 03:15:58;;;;;;;8.70;5.20;;;;;;;16.61;100.00;94521.53;5093060;28;20217;-64
2022/06/07 03:18:23;;;;;;;7.20;4.40;;;;;;;16.68;100.00;94520.66;5075002;28;20207;-65
2022/06/07 03:20:51;;;;;;;11.63;5.28;;;;;;;16.67;100.00;94528.53;5092857;28;20251;-63
2022/06/07 03:23:17;;;;;;;8.95;5.15;;;;;;;16.80;100.00;94531.38;5092790;28;20697;-59
2022/06/07 03:25:43;;;;;;;8.52;5.68;;;;;;;16.83;100.00;94532.81;5074262;28;20263;-61
2022/06/07 03:28:09;;;;;;;7.85;5.55;;;;;;;16.89;100.00;94529.56;5074474;28;20223;-64
2022/06/07 03:30:34;;;;;;;9.32;5.68;;;;;;;16.87;100.00;94526.34;5092523;28;20196;-62
2022/06/07 03:33:00;;;;;;;8.43;5.90;;;;;;;16.79;100.00;94538.25;5074392;28;20691;-63
2022/06/07 03:35:26;;;;;;;7.97;5.93;;;;;;;16.88;100.00;94531.31;5074278;28;20267;-64
2022/06/07 03:37:51;;;;;;;6.13;3.72;;;;;;;17.13;100.00;94542.22;5092427;28;20223;-60
2022/06/07 03:43:03;;;;;;;4.93;4.40;;;;;;;17.32;100.00;94537.41;5092775;28;20598;-63
2022/06/07 03:45:30;;;;;;;9.68;4.72;;;;;;;17.27;100.00;94536.31;5092024;28;20314;-63
2022/06/07 03:47:55;;;;;;;6.65;4.47;;;;;;;17.15;100.00;94530.00;5074028;28;20208;-63
2022/06/07 03:50:21;;;;;;;6.45;4.18;;;;;;;17.03;100.00;94533.94;5081771;22;20180;-67
2022/06/07 03:52:46;;;;;;;8.20;4.10;;;;;;;16.94;100.00;94534.97;5091896;28;20196;-61
2022/06/07 03:55:12;;;;;;;6.85;4.63;;;;;;;17.02;100.00;94532.31;5073933;28;20266;-63
2022/06/07 03:57:37;;;;;;;15.13;5.15;;;;;;;16.98;100.00;94528.50;5092160;28;20176;-60
2022/06/07 04:00:06;;;;;;;11.88;4.63;;;;;;;16.95;100.00;94528.88;5092144;28;20203;-65
2022/06/07 04:02:32;;;;;;;5.15;4.65;;;;;;;16.98;100.00;94528.50;5092131;28;20191;-63
2022/06/07 04:04:57;;;;;;;6.75;5.30;;;;;;;16.97;100.00;94532.06;5091876;28;20173;-63
2022/06/07 04:10:07;;;;;;;9.30;5.72;;;;;;;17.10;100.00;94522.81;5092310;28;20252;-62
2022/06/07 04:12:32;;;;;;;15.30;6.28;;;;;;;17.27;100.00;94531.97;5091966;28;20204;-60
2022/06/07 04:14:58;;;;;;;6.97;5.55;;;;;;;17.43;100.00;94536.97;5092372;28;20168;-66
2022/06/07 04:17:23;;;;;;;5.85;4.90;;;;;;;17.44;100.00;94537.75;5073818;28;20200;-60
2022/06/07 04:19:48;;;;;;;7.07;4.50;;;;;;;17.42;100.00;94534.56;5091887;28;20168;-61
2022/06/07 04:22:14;;;;;;;5.43;4.00;;;;;;;17.41;100.00;94540.69;5091334;28;20668;-64
2022/06/07 04:24:39;;;;;;;7.22;4.57;;;;;;;17.41;100.00;94548.41;5091896;28;20196;-65
2022/06/07 04:27:05;;;;;;;6.35;5.28;;;;;;;17.51;100.00;94549.78;5091949;28;20206;-63
2022/06/07 04:29:30;;;;;;;7.57;4.97;;;;;;;17.49;100.00;94546.56;5091646;28;20185;-63
2022/06/07 04:31:56;;;;;;;12.10;6.18;;;;;;;17.35;100.00;94539.59;5091544;28;20283;-65
2022/06/07 04:34:22;;;;;;;7.53;4.80;;;;;;;17.37;100.00;94539.44;5091540;28;20203;-59
2022/06/07 04:36:47;;;;;;;8.95;5.70;;;;;;;17.66;100.00;94539.53;5091711;28;20176;-63
2022/06/07 04:39:13;;;;;;;8.50;5.53;;;;;;;17.82;100.00;94536.78;5091486;28;20661;-61
2022/06/07 04:41:39;;;;;;;9.73;5.78;;;;;;;17.78;100.00;94535.53;5073495;28;20477;-62
2022/06/07 04:44:05;;;;;;;9.38;6.05;;;;;;;17.65;100.00;94532.00;5091534;28;20271;-64
2022/06/07 04:46:30;;;;;;;8.85;6.50;;;;;;;17.51;100.00;94539.50;5092230;28;20646;-63
2022/06/07 04:48:56;;;;;;;10.00;6.82;;;;;;;17.65;100.00;94537.94;5091618;28;20196;-64
2022/06/07 04:51:30;;;;;;;9.45;6.55;;;;;;;17.65;100.00;94545.66;5092185;28;20272;-60
2022/06/07 04:53:57;;;;;;;7.72;5.45;;;;;;;17.79;100.00;94550.00;5091424;28;20379;-66
2022/06/07 04:56:32;;;;;;;5.97;5.25;;;;;;;17.92;100.00;94557.91;5092100;28;20536;-60
2022/06/07 04:58:59;;;;;;;8.52;5.10;;;;;;;18.07;100.00;94547.63;5091480;28;20224;-63
2022/06/07 05:01:30;;;;;;;5.72;5.10;;;;;;;18.08;100.00;94552.59;5092161;28;20181;-60
2022/06/07 05:03:57;;;;;;;7.28;5.22;;;;;;;18.18;100.00;94562.63;5091194;28;20204;-60
2022/06/07 05:06:28;;;;;;;8.27;5.15;;;;;;;18.24;100.00;94572.22;5073417;28;20189;-59
2022/06/07 05:08:57;;;;;;;6.90;5.63;;;;;;;18.25;100.00;94564.31;5091255;28;20208;-64
2022/06/07 05:11:23;;;;;;;17.15;6.57;;;;;;;18.21;100.00;94572.56;5091765;28;20308;-60
2022/06/07 05:13:52;;;;;;;12.85;6.88;;;;;;;18.13;100.00;94564.91;5091238;28;20283;-64
2022/06/07 05:16:17;;;;;;;10.15;5.93;;;;;;;18.12;100.00;94571.06;5073312;28;20188;-64
2022/06/07 05:18:43;;;;;;;11.93;6.03;;;;;;;18.09;100.00;94554.19;5091112;28;20195;-60
2022/06/07 05:21:11;;;;;;;8.00;6.18;;;;;;;18.20;100.00;94547.81;5073193;28;20184;-60
2022/06/07 05:23:37;;;;;;;12.93;6.20;;;;;;;18.46;100.00;94550.75;5091006;28;20196;-63
2022/06/07 05:26:05;;;;;;;11.80;6.32;;;;;;;18.32;100.00;94556.69;5091572;28;20176;-63
2022/06/07 05:28:31;;;;;;;10.20;6.68;;;;;;;18.28;100.00;94568.31;5090938;28;20287;-64
2022/06/07 05:30:56;;;;;;;7.78;6.35;;;;;;;18.28;100.00;94565.72;5072851;28;20324;-64
2022/06/07 05:33:22;;;;;;;7.97;6.53;;;;;;;18.28;100.00;94563.94;5074699;28;20265;-64
2022/06/07 05:35:47;;;;;;;12.38;6.57;;;;;;;18.33;100.00;94568.56;5095084;28;20282;-59
2022/06/07 05:38:14;;;;;;;12.65;7.03;;;;;;;18.33;100.00;94569.34;5094546;28;20686;-60
2022/06/07 05:40:39;;;;;;;10.90;7.68;;;;;;;18.27;100.00;94572.66;5094947;28;20195;-64
2022/06/07 05:43:05;;;;;;;15.82;7.55;;;;;;;18.55;100.00;94579.72;5094356;28;20204;-65
2022/06/07 05:45:31;;;;;;;13.90;8.15;;;;;;;18.64;100.00;94570.94;5094798;28;20550;-65
2022/06/07 05:47:57;;;;;;;11.73;8.80;;;;;;;18.60;100.00;94569.72;5094701;28;20204;-60
2022/06/07 05:50:22;;;;;;;12.88;8.80;;;;;;;18.57;100.00;94567.47;5094474;28;20180;-67
2022/06/07 05:52:48;;;;;;;18.73;11.88;;;;;;;18.39;100.00;94560.91;5076232;28;20208;-63
2022/06/07 05:55:13;;;;;;;20.58;12.68;;;;;;;18.19;100.00;94553.91;5076660;28;20252;-64
2022/06/07 05:57:39;;;;;;;20.00;15.27;;;;;;;18.18;100.00;94568.56;5094310;28;20188;-60
2022/06/07 06:00:05;;;;;;;31.48;16.92;;;;;;;18.17;100.00;94566.16;5094412;28;20180;-67
2022/06/07 06:02:31;;;;;;;24.85;15.07;;;;;;;18.30;100.00;94558.63;5093850;28;20280;-64
2022/06/07 06:04:56;;;;;;;18.15;14.02;;;;;;;18.75;100.00;94566.13;5076208;28;20267;-65
2022/06/07 06:07:22;;;;;;;18.60;14.43;;;;;;;18.85;100.00;94558.09;5094277;28;20180;-60
2022/06/07 06:12:31;;;;;;;17.85;12.85;;;;;;;18.88;100.00;94561.13;5093994;28;20256;-60
2022/06/07 06:14:57;;;;;;;22.80;16.73;;;;;;;18.85;100.00;94570.97;5076271;28;20173;-64
2022/06/07 06:17:22;;;;;;;24.75;16.20;;;;;;;18.67;100.00;94557.69;5093773;28;20227;-60
2022/06/07 06:19:48;;;;;;;27.17;15.43;;;;;;;19.07;100.00;94555.34;5075633;28;20184;-64
2022/06/07 06:22:14;;;;;;;21.38;15.65;;;;;;;18.99;100.00;94557.25;5075677;28;20638;-64
2022/06/07 06:24:40;;;;;;;10.93;8.40;;;;;;;20.50;100.00;94554.81;5075351;28;20200;-64
2022/06/07 06:27:05;;;;;;;18.08;9.90;;;;;;;21.30;100.00;94588.50;5093931;28;20180;-62
2022/06/07 06:29:31;;;;;;;12.80;8.85;;;;;;;21.98;100.00;94612.47;5093499;28;20203;-60
2022/06/07 06:31:56;;;;;;;13.80;9.38;;;;;;;22.19;100.00;94623.38;5093724;28;20725;-60
2022/06/07 06:34:23;;;;;;;16.80;14.55;;;;;;;22.14;100.00;94648.31;5093458;28;20696;-63
2022/06/07 06:36:48;;;;;;;12.45;8.60;;;;;;;21.81;100.00;94574.97;5093678;28;20184;-61
2022/06/07 06:39:14;;;;;;;11.27;8.77;;;;;;;21.56;100.00;94551.50;5093474;28;20200;-61
2022/06/07 06:41:45;;;;;;;12.63;8.70;;;;;;;21.73;100.00;94568.22;5093351;28;20578;-59
2022/06/07 06:44:11;;;;;;;10.68;8.05;;;;;;;22.16;100.00;94597.88;5092834;28;20670;-64
2022/06/07 06:46:39;;;;;;;12.20;8.43;;;;;;;22.35;100.00;94619.56;5093205;28;20210;-65
2022/06/07 06:49:06;;;;;;;11.80;8.23;;;;;;;22.48;100.00;94601.41;5093207;28;20193;-64
2022/06/07 06:51:32;;;;;;;16.75;8.40;;;;;;;22.62;100.00;94613.38;5093563;28;20258;-60
2022/06/07 06:54:02;;;;;;;13.70;9.18;;;;;;;22.50;100.00;94599.41;5093191;28;20205;-64
2022/06/07 06:56:29;;;;;;;12.40;10.45;;;;;;;22.48;100.00;94656.59;5075190;28;20248;-60
2022/06/07 06:58:55;;;;;;;26.92;10.57;;;;;;;22.18;100.00;94576.97;5092937;28;20211;-59
2022/06/07 07:01:27;;;;;;;16.38;8.88;;;;;;;22.10;100.00;94564.25;5074860;28;20191;-61
2022/06/07 07:03:53;;;;;;;13.50;10.15;;;;;;;21.90;100.00;94559.06;5082142;22;20297;-61
2022/06/07 07:06:20;;;;;;;18.92;10.65;;;;;;;21.84;100.00;94549.53;5074791;28;20728;-61
2022/06/07 07:08:48;;;;;;;17.90;11.40;;;;;;;21.84;100.00;94540.94;5092916;28;20192;-61
2022/06/07 07:11:19;;;;;;;13.57;9.70;;;;;;;21.51;100.00;94523.63;5092892;28;20220;-61
2022/06/07 07:13:46;;;;;;;11.75;8.90;;;;;;;21.75;100.00;94541.13;5102307;22;20694;-59
2022/06/07 07:16:17;;;;;;;9.57;6.50;;;;;;;22.20;100.00;94562.03;5092662;28;20723;-60
2022/06/07 07:18:43;;;;;;;13.02;10.30;;;;;;;22.39;100.00;94579.28;5074534;28;20200;-61
2022/06/07 07:21:13;;;;;;;16.00;10.85;;;;;;;22.63;100.00;94627.09;5092647;28;20676;-61
2022/06/07 07:23:39;;;;;;;12.75;10.20;;;;;;;22.26;100.00;94590.47;5093316;28;20674;-62
2022/06/07 07:26:08;;;;;;;8.30;6.88;;;;;;;22.33;100.00;94549.03;5092615;28;20664;-59
2022/06/07 07:28:36;;;;;;;6.97;6.03;;;;;;;22.70;100.00;94587.22;5092543;28;20307;-60
2022/06/07 07:31:04;;;;;;;9.70;6.93;;;;;;;22.92;100.00;94588.50;5074379;28;20312;-62
2022/06/07 07:33:31;;;;;;;15.30;9.45;;;;;;;23.01;100.00;94589.06;5092330;28;20295;-60
2022/06/07 07:35:57;;;;;;;9.95;5.75;;;;;;;22.93;100.00;94568.53;5074083;28;20230;-60
2022/06/07 07:38:23;;;;;;;14.85;10.00;;;;;;;22.80;100.00;94577.19;5092923;28;20204;-61
2022/06/07 07:40:50;;;;;;;14.77;10.55;;;;;;;22.41;100.00;94525.47;5074179;28;20177;-63
2022/06/07 07:43:16;;;;;;;17.48;9.48;;;;;;;22.30;100.00;94523.53;5092404;28;20196;-62
2022/06/07 07:45:42;;;;;;;13.73;9.70;;;;;;;22.00;100.00;94517.25;5074054;28;20184;-64
2022/06/07 07:48:07;;;;;;;16.45;11.27;;;;;;;21.91;100.00;94495.94;5073968;28;20204;-61
2022/06/07 07:50:33;;;;;;;13.93;11.18;;;;;;;21.71;100.00;94501.13;5092188;28;20172;-63
2022/06/07 07:52:59;;;;;;;14.23;11.23;;;;;;;21.46;100.00;94476.88;5074171;28;20212;-60
2022/06/07 07:55:24;;;;;;;15.70;9.02;;;;;;;21.04;100.00;94469.53;5073630;28;20176;-60
2022/06/07 07:57:50;;;;;;;11.93;8.60;;;;;;;21.41;100.00;94483.66;5092303;28;20208;-61
2022/06/07 08:00:16;;;;;;;12.90;8.57;;;;;;;21.34;100.00;94488.81;5074001;28;20176;-63
2022/06/07 08:02:42;;;;;;;11.75;9.35;;;;;;;21.32;100.00;94459.78;5073827;28;20238;-64
2022/06/07 08:05:08;;;;;;;10.35;8.00;;;;;;;21.15;100.00;94462.97;5092210;28;20180;-62
2022/06/07 08:07:33;;;;;;;7.60;6.85;;;;;;;21.34;100.00;94496.56;5092085;28;20222;-59
2022/06/07 08:10:03;;;;;;;8.43;7.00;;;;;;;21.58;100.00;94536.56;5073842;28;20187;-63
2022/06/07 08:12:29;;;;;;;9.90;6.30;;;;;;;21.42;100.00;94511.09;5073487;28;20575;-63
2022/06/07 08:14:54;;;;;;;7.97;6.63;;;;;;;21.64;100.00;94624.56;5092001;28;20176;-63
2022/06/07 08:17:22;;;;;;;6.85;6.05;;;;;;;21.55;100.00;94548.09;5091856;28;20561;-62
2022/06/07 08:19:48;;;;;;;9.35;5.95;;;;;;;21.65;100.00;94499.34;5092134;28;20249;-64
2022/06/07 08:22:14;;;;;;;5.30;4.72;;;;;;;21.61;100.00;94583.53;5091820;28;20180;-60
2022/06/07 08:24:39;;;;;;;5.85;5.00;;;;;;;21.52;100.00;94561.44;5091765;28;20323;-61
2022/06/07 08:27:05;;;;;;;10.15;6.10;;;;;;;21.64;100.00;94525.41;5091827;28;20540;-62
2022/06/07 08:29:30;;;;;;;12.45;6.70;;;;;;;21.69;100.00;94494.56;5092297;28;20285;-61
2022/06/07 08:31:56;;;;;;;10.13;6.07;;;;;;;21.70;100.00;94496.94;5073673;28;20219;-59
2022/06/07 08:39:49;;;;;;;49.85;11.32;;;;;;;21.94;100.00;94505.13;5091981;28;20555;-63
2022/06/07 08:42:29;;;;;;;8.13;5.18;;;;;;;21.92;100.00;94536.38;5073394;28;20180;-62
2022/06/07 08:44:59;;;;;;;7.10;4.80;;;;;;;21.96;100.00;94545.31;5091975;28;20180;-63
2022/06/07 08:47:45;;;;;;;6.03;4.70;;;;;;;22.29;97.75;94651.47;5073600;28;20183;-62
2022/06/07 08:50:16;;;;;;;5.90;4.28;;;;;;;22.42;92.91;94691.09;5091658;28;20237;-64
2022/06/07 08:52:42;;;;;;;4.95;3.67;;;;;;;22.41;88.65;94691.31;5091683;28;20208;-63
2022/06/07 08:55:25;;;;;;;4.90;3.38;;;;;;;22.48;91.33;94614.38;5073832;28;20237;-60
2022/06/07 08:57:57;;;;;;;5.22;3.53;;;;;;;22.34;87.37;94667.22;5091661;28;20698;-62
2022/06/07 09:00:32;;;;;;;5.07;4.57;;;;;;;22.60;88.94;94628.31;5091648;28;20203;-63
2022/06/07 09:03:16;;;;;;;23.83;5.95;;;;;;;22.78;98.27;94472.09;5091513;28;20200;-61
2022/06/07 09:05:41;;;;;;;5.85;3.17;;;;;;;22.94;85.94;94687.66;5091667;28;20176;-63
2022/06/07 09:08:12;;;;;;;3.80;2.38;;;;;;;22.99;77.33;94773.41;5094944;28;20624;-64
2022/06/07 09:13:24;;;;;;;6.78;4.53;;;;;;;23.21;80.63;94558.63;5095456;28;20238;-60
2022/06/07 09:15:53;;;;;;;4.40;3.53;;;;;;;23.37;75.84;94614.44;5095281;28;20169;-61
2022/06/07 09:18:21;;;;;;;4.47;3.60;;;;;;;23.67;78.35;94550.53;5076815;28;20566;-60
2022/06/07 09:20:50;;;;;;;4.88;3.45;;;;;;;23.91;73.49;94625.03;5076953;28;20180;-63
2022/06/07 09:23:49;;;;;;;3.55;3.13;;;;;;;23.95;76.06;94559.47;5095311;28;20196;-59
2022/06/07 09:26:17;;;;;;;3.88;3.47;;;;;;;24.07;72.64;94616.75;5050637;28;20189;-62
2022/06/07 09:28:46;;;;;;;4.60;3.63;;;;;;;24.00;71.20;94642.75;5095254;28;20204;-61
2022/06/07 09:31:15;;;;;;;5.40;3.65;;;;;;;23.95;73.76;94575.06;5094806;28;20716;-64
2022/06/07 09:33:56;;;;;;;3.95;3.53;;;;;;;24.32;78.23;94492.75;5102285;22;20231;-64
2022/06/07 09:36:28;;;;;;;7.47;4.60;;;;;;;24.60;75.68;94554.66;5094958;28;20671;-62
2022/06/07 09:39:01;;;;;;;5.95;3.45;;;;;;;24.46;72.42;94611.16;5095093;28;20223;-59
2022/06/07 09:41:40;;;;;;;5.35;4.03;;;;;;;24.51;72.44;94587.94;5094827;28;20176;-62
2022/06/07 09:44:30;;;;;;;5.47;3.63;;;;;;;24.26;70.37;94630.59;5076798;28;20583;-61
2022/06/07 09:47:00;;;;;;;3.67;3.38;;;;;;;24.38;69.13;94640.03;5076321;28;20169;-59
2022/06/07 09:49:32;;;;;;;5.00;4.05;;;;;;;24.77;75.55;94504.44;5095041;28;20208;-61
2022/06/07 09:52:23;;;;;;;8.77;4.00;;;;;;;25.03;77.21;94484.28;5093337;28;20208;-61
2022/06/07 09:54:53;;;;;;;5.00;3.47;;;;;;;25.07;65.86;94706.59;5075829;28;20724;-61
2022/06/07 09:57:21;;;;;;;3.88;3.45;;;;;;;25.06;69.89;94586.09;5094577;28;20168;-60
2022/06/07 10:00:05;;;;;;;4.60;4.20;;;;;;;25.15;73.05;94530.13;5076204;28;20721;-61
2022/06/07 10:02:49;;;;;;;4.28;3.90;;;;;;;25.13;72.14;94547.75;5094472;28;20192;-62
2022/06/07 10:05:28;;;;;;;4.65;4.15;;;;;;;25.20;66.59;94662.19;5076210;28;20204;-63
2022/06/07 10:08:11;;;;;;;9.02;4.10;;;;;;;25.22;67.18;94624.53;5076152;28;20590;-59
2022/06/07 10:11:10;;;;;;;5.80;4.15;;;;;;;25.04;69.69;94567.31;5093934;28;20156;-62
2022/06/07 10:14:01;;;;;;;6.47;4.78;;;;;;;25.19;69.14;94575.50;5094353;28;20598;-62
2022/06/07 10:16:35;;;;;;;6.65;4.20;;;;;;;25.31;68.11;94596.38;5094192;28;20172;-60
2022/06/07 10:19:19;;;;;;;5.45;4.10;;;;;;;25.39;67.09;94590.88;5093995;28;20522;-62
2022/06/07 10:21:53;;;;;;;6.20;3.45;;;;;;;25.64;65.85;94618.34;5094038;28;20179;-62
2022/06/07 10:24:46;;;;;;;4.95;3.80;;;;;;;25.81;64.95;94639.34;5094289;28;20256;-63
2022/06/07 10:27:14;;;;;;;24.85;5.22;;;;;;;26.05;65.71;94617.53;5075892;28;20675;-63
2022/06/07 10:30:01;;;;;;;6.00;4.18;;;;;;;26.03;66.63;94585.69;5083194;22;20224;-62
2022/06/07 10:32:32;;;;;;;5.75;3.45;;;;;;;25.64;65.09;94609.75;5093662;28;20280;-63
2022/06/07 10:35:10;;;;;;;4.20;3.80;;;;;;;25.71;66.97;94561.75;5093724;28;20161;-62
2022/06/07 10:37:51;;;;;;;4.07;3.75;;;;;;;25.78;63.96;94619.75;5093754;28;20191;-61
2022/06/07 10:40:29;;;;;;;4.20;3.63;;;;;;;25.69;65.64;94582.00;5093956;28;20601;-63
2022/06/07 10:43:05;;;;;;;4.40;3.63;;;;;;;25.65;66.64;94548.84;5093579;28;20211;-62
2022/06/07 10:45:37;;;;;;;4.15;3.85;;;;;;;25.12;68.87;94491.53;5093487;28;20182;-61
2022/06/07 10:48:15;;;;;;;4.07;3.65;;;;;;;25.31;67.51;94518.31;5075125;28;20204;-63
2022/06/07 10:50:45;;;;;;;5.40;3.97;;;;;;;25.36;67.68;94516.59;5093058;28;20559;-64
2022/06/07 10:53:16;;;;;;;4.55;3.50;;;;;;;25.52;65.58;94572.47;5093446;28;20574;-61
2022/06/07 10:55:58;;;;;;;5.97;3.80;;;;;;;25.95;64.51;94575.59;5075212;28;20176;-65
2022/06/07 10:58:39;;;;;;;4.07;3.78;;;;;;;26.28;66.86;94523.69;5093509;28;20200;-62
2022/06/07 11:01:25;;;;;;;4.25;3.85;;;;;;;26.11;61.01;94652.34;5074872;28;20632;-62
2022/06/07 11:10:14;;;;;;;5.38;3.90;;;;;;;25.52;61.49;94590.69;5093033;28;20187;-61
2022/06/07 11:12:59;;;;;;;3.97;3.53;;;;;;;25.72;61.12;94593.78;5092869;28;20220;-64
2022/06/07 11:16:00;;;;;;;4.93;3.75;;;;;;;26.09;62.52;94556.13;5092836;28;20168;-60
2022/06/07 11:18:27;;;;;;;5.53;3.65;;;;;;;25.92;59.44;94609.91;5074797;28;20215;-62
2022/06/07 11:21:03;;;;;;;3.70;3.40;;;;;;;25.61;61.45;94566.72;5058062;28;20653;-63
2022/06/07 11:23:34;;;;;;;4.47;3.95;;;;;;;25.57;59.71;94603.84;5074642;28;20216;-63
2022/06/07 11:26:15;;;;;;;4.05;3.30;;;;;;;26.20;59.45;94604.84;5074401;28;20216;-65
2022/06/07 11:28:41;;;;;;;3.58;3.22;;;;;;;26.59;62.11;94551.19;5092618;28;20268;-65
2022/06/07 11:31:15;;;;;;;5.45;3.70;;;;;;;27.40;64.54;94493.47;5091610;28;20292;-62
2022/06/07 11:33:52;;;;;;;4.60;3.47;;;;;;;28.07;60.77;94581.31;5092819;28;20248;-63
2022/06/07 11:36:23;;;;;;;4.25;3.50;;;;;;;28.24;55.82;94657.94;5074395;28;20172;-64
2022/06/07 11:38:58;;;;;;;4.07;3.13;;;;;;;28.23;53.39;94703.44;5081802;22;20315;-62
2022/06/07 11:41:38;;;;;;;5.72;3.20;;;;;;;28.17;53.69;94680.03;5074132;28;20180;-62
2022/06/07 11:44:04;;;;;;;4.90;3.10;;;;;;;27.94;53.72;94660.03;5074382;28;20204;-64
2022/06/07 11:46:35;;;;;;;4.40;3.15;;;;;;;27.85;55.99;94597.94;5092651;28;20188;-60
2022/06/07 11:49:19;;;;;;;3.58;3.20;;;;;;;27.83;54.70;94620.91;5092302;28;20594;-63
2022/06/07 11:51:53;;;;;;;7.63;4.60;;;;;;;27.75;55.98;94577.66;5092173;28;20245;-63
2022/06/07 11:54:24;;;;;;;12.82;4.85;;;;;;;28.31;54.92;94602.03;5092656;28;20214;-62
2022/06/07 11:56:55;;;;;;;4.75;4.32;;;;;;;28.42;51.23;94690.91;5092027;28;20633;-59
2022/06/07 11:59:21;;;;;;;11.65;6.22;;;;;;;28.47;52.81;94648.31;5092232;28;20197;-61
2022/06/07 12:02:06;;;;;;;4.30;3.88;;;;;;;28.44;53.28;94633.13;5074055;28;20238;-60
2022/06/07 12:04:41;;;;;;;3.67;3.42;;;;;;;28.49;51.48;94681.06;5060372;28;20667;-60